sensor_id;sensor_type;location;lat;lon;timestamp;temperature;humidity
42147;DHT22;27815;43.410;11.852;2023-03-01T00:03:00;7.10;68.70
42147;DHT22;27815;43.410;11.852;2023-03-01T00:07:21;7.10;68.80
42147;DHT22;27815;43.410;11.852;2023-03-01T00:11:56;7.10;68.80
42147;DHT22;27815;43.410;11.852;2023-03-01T00:16:16;7.10;68.80
42147;DHT22;27815;43.410;11.852;2023-03-01T00:20:40;7.10;68.90
42147;DHT22;27815;43.410;11.852;2023-03-01T00:24:46;7.10;68.90
42147;DHT22;27815;43.410;11.852;2023-03-01T00:29:16;7.10;69.00
42147;DHT22;27815;43.410;11.852;2023-03-01T00:33:38;7.10;69.10
42147;DHT22;27815;43.410;11.852;2023-03-01T00:37:58;7.10;69.10
42147;DHT22;27815;43.410;11.852;2023-03-01T00:42:15;7.10;69.20
42147;DHT22;27815;43.410;11.852;2023-03-01T00:46:33;7.10;69.40
42147;DHT22;27815;43.410;11.852;2023-03-01T00:50:52;7.10;69.40
42147;DHT22;27815;43.410;11.852;2023-03-01T00:55:15;7.10;69.30
42147;DHT22;27815;43.410;11.852;2023-03-01T01:00:00;7.20;69.10
42147;DHT22;27815;43.410;11.852;2023-03-01T01:04:48;7.20;69.00
42147;DHT22;27815;43.410;11.852;2023-03-01T01:09:07;7.20;68.80
42147;DHT22;27815;43.410;11.852;2023-03-01T01:13:14;7.20;68.70
42147;DHT22;27815;43.410;11.852;2023-03-01T01:17:37;7.20;68.60
42147;DHT22;27815;43.410;11.852;2023-03-01T01:22:00;7.20;68.50
42147;DHT22;27815;43.410;11.852;2023-03-01T01:26:44;7.30;68.30
42147;DHT22;27815;43.410;11.852;2023-03-01T01:31:03;7.20;68.20
42147;DHT22;27815;43.410;11.852;2023-03-01T01:35:44;7.30;68.10
42147;DHT22;27815;43.410;11.852;2023-03-01T01:40:32;7.30;68.00
42147;DHT22;27815;43.410;11.852;2023-03-01T01:49:53;7.20;67.70
42147;DHT22;27815;43.410;11.852;2023-03-01T01:54:38;7.30;67.40
42147;DHT22;27815;43.410;11.852;2023-03-01T01:59:17;7.30;67.00
42147;DHT22;27815;43.410;11.852;2023-03-01T02:03:38;7.30;66.80
42147;DHT22;27815;43.410;11.852;2023-03-01T02:09:10;7.40;66.70
42147;DHT22;27815;43.410;11.852;2023-03-01T02:13:51;7.40;66.30
42147;DHT22;27815;43.410;11.852;2023-03-01T02:18:18;7.50;66.30
42147;DHT22;27815;43.410;11.852;2023-03-01T02:22:32;7.50;66.00
42147;DHT22;27815;43.410;11.852;2023-03-01T02:27:26;7.60;65.70
42147;DHT22;27815;43.410;11.852;2023-03-01T02:32:29;7.60;65.40
42147;DHT22;27815;43.410;11.852;2023-03-01T02:37:14;7.60;65.20
42147;DHT22;27815;43.410;11.852;2023-03-01T02:41:56;7.60;65.00
42147;DHT22;27815;43.410;11.852;2023-03-01T02:46:55;7.60;64.90
42147;DHT22;27815;43.410;11.852;2023-03-01T02:57:03;7.60;64.60
42147;DHT22;27815;43.410;11.852;2023-03-01T03:01:28;7.60;64.40
42147;DHT22;27815;43.410;11.852;2023-03-01T03:06:19;7.60;64.40
42147;DHT22;27815;43.410;11.852;2023-03-01T03:11:18;7.60;64.10
42147;DHT22;27815;43.410;11.852;2023-03-01T03:15:44;7.60;64.10
42147;DHT22;27815;43.410;11.852;2023-03-01T03:20:11;7.60;64.00
42147;DHT22;27815;43.410;11.852;2023-03-01T03:24:56;7.60;63.90
42147;DHT22;27815;43.410;11.852;2023-03-01T03:29:39;7.60;63.70
42147;DHT22;27815;43.410;11.852;2023-03-01T03:34:05;7.60;63.60
42147;DHT22;27815;43.410;11.852;2023-03-01T03:38:30;7.60;63.60
42147;DHT22;27815;43.410;11.852;2023-03-01T03:43:07;7.60;63.50
42147;DHT22;27815;43.410;11.852;2023-03-01T03:48:03;7.60;63.50
42147;DHT22;27815;43.410;11.852;2023-03-01T03:52:35;7.50;63.60
42147;DHT22;27815;43.410;11.852;2023-03-01T03:56:55;7.50;63.60
42147;DHT22;27815;43.410;11.852;2023-03-01T04:01:14;7.50;63.60
42147;DHT22;27815;43.410;11.852;2023-03-01T04:06:02;7.50;63.50
42147;DHT22;27815;43.410;11.852;2023-03-01T04:10:49;7.50;63.50
42147;DHT22;27815;43.410;11.852;2023-03-01T04:15:17;7.50;63.60
42147;DHT22;27815;43.410;11.852;2023-03-01T04:19:58;7.50;63.50
42147;DHT22;27815;43.410;11.852;2023-03-01T04:24:51;7.50;63.50
42147;DHT22;27815;43.410;11.852;2023-03-01T04:29:27;7.50;63.50
42147;DHT22;27815;43.410;11.852;2023-03-01T04:34:27;7.50;63.40
42147;DHT22;27815;43.410;11.852;2023-03-01T04:39:19;7.40;63.40
42147;DHT22;27815;43.410;11.852;2023-03-01T04:50:13;7.40;63.40
42147;DHT22;27815;43.410;11.852;2023-03-01T04:54:57;7.40;63.40
42147;DHT22;27815;43.410;11.852;2023-03-01T04:59:36;7.40;63.40
42147;DHT22;27815;43.410;11.852;2023-03-01T05:04:03;7.40;63.50
42147;DHT22;27815;43.410;11.852;2023-03-01T05:08:26;7.50;63.60
42147;DHT22;27815;43.410;11.852;2023-03-01T05:12:59;7.50;63.60
42147;DHT22;27815;43.410;11.852;2023-03-01T05:17:21;7.50;63.60
42147;DHT22;27815;43.410;11.852;2023-03-01T05:21:43;7.60;63.70
42147;DHT22;27815;43.410;11.852;2023-03-01T05:26:22;7.60;63.70
42147;DHT22;27815;43.410;11.852;2023-03-01T05:30:47;7.50;63.90
42147;DHT22;27815;43.410;11.852;2023-03-01T05:35:29;7.50;64.00
42147;DHT22;27815;43.410;11.852;2023-03-01T05:39:47;7.50;64.30
42147;DHT22;27815;43.410;11.852;2023-03-01T05:44:06;7.50;64.50
42147;DHT22;27815;43.410;11.852;2023-03-01T05:48:23;7.50;65.00
42147;DHT22;27815;43.410;11.852;2023-03-01T05:52:39;7.40;65.20
42147;DHT22;27815;43.410;11.852;2023-03-01T05:56:57;7.30;65.50
42147;DHT22;27815;43.410;11.852;2023-03-01T06:01:19;7.30;65.50
42147;DHT22;27815;43.410;11.852;2023-03-01T06:05:37;7.20;65.70
42147;DHT22;27815;43.410;11.852;2023-03-01T06:09:58;7.10;66.10
42147;DHT22;27815;43.410;11.852;2023-03-01T06:14:16;7.10;66.20
42147;DHT22;27815;43.410;11.852;2023-03-01T06:18:33;7.00;66.30
42147;DHT22;27815;43.410;11.852;2023-03-01T06:22:50;7.00;66.60
42147;DHT22;27815;43.410;11.852;2023-03-01T06:26:53;7.00;67.40
42147;DHT22;27815;43.410;11.852;2023-03-01T06:44:48;6.70;67.70
42147;DHT22;27815;43.410;11.852;2023-03-01T11:05:27;5.10;72.50
42147;DHT22;27815;43.410;11.852;2023-03-01T11:09:59;5.10;72.50
42147;DHT22;27815;43.410;11.852;2023-03-01T11:14:50;5.00;72.40
42147;DHT22;27815;43.410;11.852;2023-03-01T11:19:34;4.90;72.60
42147;DHT22;27815;43.410;11.852;2023-03-01T11:43:19;4.90;73.60
42147;DHT22;27815;43.410;11.852;2023-03-01T12:07:14;4.90;75.70
42147;DHT22;27815;43.410;11.852;2023-03-01T12:11:51;4.80;76.00
42147;DHT22;27815;43.410;11.852;2023-03-01T12:16:20;4.80;76.20
42147;DHT22;27815;43.410;11.852;2023-03-01T17:50:39;6.40;72.00
42147;DHT22;27815;43.410;11.852;2023-03-01T17:55:03;6.40;72.10
42147;DHT22;27815;43.410;11.852;2023-03-01T18:14:00;6.00;72.10
42147;DHT22;27815;43.410;11.852;2023-03-01T18:22:57;5.80;72.30
42147;DHT22;27815;43.410;11.852;2023-03-01T18:27:17;5.70;72.50
42147;DHT22;27815;43.410;11.852;2023-03-01T18:31:34;5.70;72.70
42147;DHT22;27815;43.410;11.852;2023-03-01T18:35:52;5.70;72.70
42147;DHT22;27815;43.410;11.852;2023-03-01T18:40:11;5.70;72.70
42147;DHT22;27815;43.410;11.852;2023-03-01T18:44:30;5.80;72.60
42147;DHT22;27815;43.410;11.852;2023-03-01T18:48:48;5.70;72.50
42147;DHT22;27815;43.410;11.852;2023-03-01T18:53:26;5.70;72.50
42147;DHT22;27815;43.410;11.852;2023-03-01T19:21:29;5.60;71.90
42147;DHT22;27815;43.410;11.852;2023-03-01T19:26:07;5.60;72.00
42147;DHT22;27815;43.410;11.852;2023-03-01T19:30:28;5.50;72.20
42147;DHT22;27815;43.410;11.852;2023-03-01T19:34:46;5.60;72.20
42147;DHT22;27815;43.410;11.852;2023-03-01T19:39:45;5.60;72.00
42147;DHT22;27815;43.410;11.852;2023-03-01T19:44:05;5.60;72.00
42147;DHT22;27815;43.410;11.852;2023-03-01T20:36:04;5.70;71.20
42147;DHT22;27815;43.410;11.852;2023-03-01T21:55:19;5.60;71.20
